Time;durP1;ratioP1;P1;durP2;ratioP2;P2;SDS_P1;SDS_P2;PMS_P1;PMS_P2;Temp;Humidity;BMP_temperature;BMP_pressure;BME280_temperature;BME280_humidity;BME280_pressure;Samples;Min_cycle;Max_cycle;Signal;HPM_P1;HPM_P2
2022/07/06 00:01:25;;;;;;;3.50;2.53;;;;;;;19.34;71.56;99475.34;4353780;32;33746;-87
2022/07/06 00:03:54;;;;;;;12.63;3.08;;;;;;;19.22;71.98;99480.41;4352090;32;33904;-87
2022/07/06 00:06:25;;;;;;;3.47;2.22;;;;;;;19.16;72.22;99484.19;4348407;32;34265;-87
2022/07/06 00:08:54;;;;;;;3.95;2.22;;;;;;;19.14;72.70;99484.28;4352737;32;33768;-86
2022/07/06 00:11:23;;;;;;;2.75;1.98;;;;;;;19.25;71.84;99481.09;4356028;32;33904;-87
2022/07/06 00:13:52;;;;;;;2.83;1.80;;;;;;;19.40;71.25;99484.69;4361992;32;33758;-88
2022/07/06 00:16:22;;;;;;;3.70;2.33;;;;;;;19.32;71.45;99479.84;4356342;32;34594;-87
2022/07/06 00:18:51;;;;;;;2.67;2.05;;;;;;;19.43;71.07;99481.91;4357232;32;33424;-87
2022/07/06 00:21:19;;;;;;;3.33;2.30;;;;;;;19.40;71.52;99472.41;4354794;32;32958;-87
2022/07/06 00:23:51;;;;;;;3.90;2.40;;;;;;;19.42;71.09;99467.06;4356740;32;34122;-87
2022/07/06 00:26:20;;;;;;;4.37;2.37;;;;;;;19.28;71.75;99466.94;4361267;32;34074;-87
2022/07/06 00:28:49;;;;;;;3.55;2.35;;;;;;;19.06;72.61;99461.94;4355359;32;33758;-87
2022/07/06 00:31:18;;;;;;;4.03;2.47;;;;;;;19.06;72.53;99467.19;4355959;32;33512;-87
2022/07/06 00:33:47;;;;;;;3.97;2.42;;;;;;;19.09;72.37;99465.28;4357044;32;34566;-88
2022/07/06 00:36:16;;;;;;;3.28;2.28;;;;;;;19.09;72.08;99467.91;4355802;32;33757;-87
2022/07/06 00:38:45;;;;;;;4.03;2.10;;;;;;;19.02;72.76;99457.78;4358798;32;34607;-88
2022/07/06 00:41:15;;;;;;;4.00;2.70;;;;;;;19.08;72.53;99463.56;4361032;32;34161;-87
2022/07/06 00:43:50;;;;;;;3.72;2.50;;;;;;;19.06;72.48;99460.16;4355169;32;33853;-87
2022/07/06 00:46:18;;;;;;;2.70;1.90;;;;;;;19.15;72.15;99457.06;4355834;32;34778;-86
2022/07/06 00:48:47;;;;;;;3.10;1.92;;;;;;;19.30;71.66;99463.28;4353783;32;33361;-87
2022/07/06 00:51:16;;;;;;;3.90;2.20;;;;;;;19.32;71.41;99465.84;4353184;32;33269;-87
2022/07/06 00:53:45;;;;;;;3.62;2.30;;;;;;;19.11;72.21;99457.28;4362087;32;34644;-87
2022/07/06 00:56:16;;;;;;;2.95;2.10;;;;;;;19.14;71.82;99463.25;4347055;32;33781;-87
2022/07/06 00:58:45;;;;;;;3.45;2.35;;;;;;;19.15;72.04;99464.94;4341937;33;34159;-86
2022/07/06 01:01:13;;;;;;;3.75;2.30;;;;;;;19.32;71.02;99456.16;4351045;32;33236;-86
2022/07/06 01:03:43;;;;;;;4.20;2.20;;;;;;;19.26;71.38;99459.13;4355561;32;33495;-87
2022/07/06 01:06:11;;;;;;;3.25;2.10;;;;;;;19.46;70.76;99455.44;4359210;32;34735;-86
2022/07/06 01:08:40;;;;;;;2.85;1.73;;;;;;;19.36;71.02;99462.97;4353434;32;34095;-87
2022/07/06 01:11:09;;;;;;;3.15;1.83;;;;;;;19.78;69.22;99464.25;4354440;32;33369;-86
2022/07/06 01:13:40;;;;;;;6.10;2.50;;;;;;;19.79;68.99;99468.59;4354973;32;33567;-86
2022/07/06 01:16:09;;;;;;;3.70;2.35;;;;;;;19.46;70.41;99471.22;4355015;32;33522;-87
2022/07/06 01:18:38;;;;;;;2.37;1.98;;;;;;;19.51;69.83;99461.31;4357150;32;34519;-87
2022/07/06 01:21:10;;;;;;;3.72;2.30;;;;;;;19.38;70.62;99466.38;4358586;32;33177;-87
2022/07/06 01:23:41;;;;;;;3.45;2.17;;;;;;;19.33;70.62;99468.41;4346459;32;33824;-86
2022/07/06 01:26:14;;;;;;;3.12;2.33;;;;;;;19.13;71.33;99469.44;4347995;32;34315;-86
2022/07/06 01:28:44;;;;;;;3.45;2.20;;;;;;;19.23;71.02;99458.44;4349281;32;33490;-88
2022/07/06 01:31:17;;;;;;;4.35;3.03;;;;;;;19.19;71.04;99460.41;4337691;32;33203;-87
2022/07/06 01:33:46;;;;;;;3.55;2.15;;;;;;;18.74;72.80;99467.03;4350398;32;32476;-86
2022/07/06 01:36:16;;;;;;;2.97;2.17;;;;;;;18.45;74.53;99458.81;4346115;32;33882;-87
2022/07/06 01:38:49;;;;;;;4.57;2.30;;;;;;;18.67;73.53;99468.28;4347569;32;33736;-87
2022/07/06 01:41:18;;;;;;;4.60;2.83;;;;;;;18.43;74.32;99451.94;4347028;32;32980;-87
2022/07/06 01:43:47;;;;;;;5.87;2.90;;;;;;;18.26;75.34;99450.16;4354551;32;33947;-88
2022/07/06 01:46:16;;;;;;;4.90;2.40;;;;;;;18.30;75.13;99455.19;4361909;32;34535;-87
2022/07/06 01:48:47;;;;;;;3.92;2.85;;;;;;;18.19;75.62;99454.84;4348104;32;35051;-87
2022/07/06 01:51:17;;;;;;;3.87;2.80;;;;;;;18.32;75.12;99463.84;4347599;32;32262;-87
2022/07/06 01:53:47;;;;;;;3.97;2.50;;;;;;;18.64;73.36;99458.78;4349238;32;35269;-86
2022/07/06 01:56:17;;;;;;;3.95;2.72;;;;;;;18.65;73.79;99454.34;4334066;32;32138;-87
2022/07/06 01:58:46;;;;;;;5.00;3.10;;;;;;;18.58;73.72;99466.97;4355206;32;33891;-87
2022/07/06 02:01:17;;;;;;;5.30;2.75;;;;;;;18.44;74.28;99467.66;4347617;32;33458;-86
2022/07/06 02:03:46;;;;;;;4.50;2.90;;;;;;;18.56;73.87;99468.81;4346870;32;32667;-87
2022/07/06 02:06:17;;;;;;;4.95;2.80;;;;;;;18.47;74.26;99469.28;4347957;32;33817;-86
2022/07/06 02:08:47;;;;;;;7.07;2.70;;;;;;;18.53;74.00;99477.72;4346589;32;34764;-87
2022/07/06 02:11:15;;;;;;;5.12;3.00;;;;;;;18.31;74.90;99472.66;4353505;32;33736;-87
2022/07/06 02:13:44;;;;;;;4.53;2.87;;;;;;;18.46;74.30;99481.56;4349697;32;35267;-86
2022/07/06 02:16:13;;;;;;;3.15;2.20;;;;;;;18.59;73.93;99486.22;4346497;32;33923;-87
2022/07/06 02:18:42;;;;;;;5.03;3.25;;;;;;;18.57;73.93;99493.31;4347341;32;34448;-86
2022/07/06 02:21:11;;;;;;;5.18;2.87;;;;;;;18.49;74.33;99493.69;4346625;32;33578;-87
2022/07/06 02:23:42;;;;;;;4.35;2.75;;;;;;;18.53;74.26;99495.22;4343154;33;34239;-87
2022/07/06 02:26:11;;;;;;;6.57;3.53;;;;;;;18.52;74.35;99496.16;4353556;32;33513;-87
2022/07/06 02:28:40;;;;;;;5.53;3.00;;;;;;;18.43;74.55;99488.72;4347666;32;34208;-87
2022/07/06 02:31:09;;;;;;;3.97;2.55;;;;;;;18.60;73.97;99486.12;4347165;32;32371;-86
2022/07/06 02:33:38;;;;;;;4.62;2.95;;;;;;;18.68;73.66;99480.50;4347223;32;33484;-87
2022/07/06 02:36:07;;;;;;;3.78;2.50;;;;;;;18.67;73.70;99468.28;4348395;32;33569;-88
2022/07/06 02:38:36;;;;;;;4.32;2.80;;;;;;;18.79;72.85;99472.94;4352097;32;33642;-87
2022/07/06 02:41:07;;;;;;;4.95;3.15;;;;;;;18.69;73.17;99488.28;4346611;32;33794;-87
2022/07/06 02:43:38;;;;;;;4.25;2.85;;;;;;;18.59;73.81;99478.31;4348065;32;32704;-87
2022/07/06 02:46:06;;;;;;;4.55;3.03;;;;;;;18.57;73.68;99486.28;4347014;32;32855;-86
2022/07/06 02:48:35;;;;;;;5.00;2.87;;;;;;;18.60;73.57;99485.28;4345237;32;33561;-87
2022/07/06 02:51:05;;;;;;;6.55;3.05;;;;;;;18.66;73.78;99496.34;4352733;32;33186;-88
2022/07/06 02:53:35;;;;;;;5.78;2.87;;;;;;;18.63;73.82;99493.88;4349104;32;34552;-87
2022/07/06 02:56:04;;;;;;;5.55;2.85;;;;;;;18.38;74.81;99499.44;4354597;32;34604;-87
2022/07/06 02:58:34;;;;;;;7.65;3.72;;;;;;;18.87;72.82;99510.22;4350500;32;34498;-87
2022/07/06 03:01:03;;;;;;;5.65;3.42;;;;;;;19.00;72.22;99515.69;4353267;32;33591;-88
2022/07/06 03:03:33;;;;;;;4.95;3.12;;;;;;;19.06;71.73;99515.38;4349064;32;34187;-88
2022/07/06 03:06:02;;;;;;;4.57;2.67;;;;;;;18.64;73.27;99521.81;4347424;32;33176;-87
2022/07/06 03:08:32;;;;;;;4.78;3.03;;;;;;;18.65;73.56;99513.03;4340988;32;32920;-86
2022/07/06 03:11:03;;;;;;;4.50;2.60;;;;;;;18.74;73.34;99523.06;4347573;32;32974;-87
2022/07/06 03:13:32;;;;;;;5.55;3.37;;;;;;;18.75;73.01;99518.69;4349441;32;33884;-88
2022/07/06 03:16:02;;;;;;;5.18;3.30;;;;;;;18.34;74.55;99511.03;4356150;32;34416;-87
2022/07/06 03:18:31;;;;;;;4.53;3.03;;;;;;;18.41;74.55;99524.72;4352692;32;34474;-87
2022/07/06 03:21:03;;;;;;;4.70;2.95;;;;;;;18.28;75.05;99522.69;4356204;32;34091;-87
2022/07/06 03:23:32;;;;;;;;;;;;;;;18.24;74.95;99526.38;4353853;32;35961;-87
2022/07/06 03:26:00;;;;;;;4.53;2.72;;;;;;;18.27;74.92;99528.87;4354885;32;33909;-87
2022/07/06 03:28:30;;;;;;;4.75;2.97;;;;;;;18.37;74.55;99542.41;4353283;32;33926;-87
2022/07/06 03:30:59;;;;;;;5.95;3.28;;;;;;;18.28;74.70;99542.84;4358998;32;33648;-88
2022/07/06 03:33:30;;;;;;;4.90;2.85;;;;;;;18.16;75.15;99551.28;4354221;32;34679;-87
2022/07/06 03:36:00;;;;;;;3.60;2.40;;;;;;;18.21;75.24;99552.78;4356031;32;33706;-86
2022/07/06 03:38:29;;;;;;;4.97;3.10;;;;;;;18.46;74.01;99554.22;4354540;32;34561;-87
2022/07/06 03:40:57;;;;;;;5.05;2.72;;;;;;;18.60;73.12;99554.41;4356529;32;34081;-87
2022/07/06 03:43:27;;;;;;;3.80;2.53;;;;;;;18.52;73.47;99559.22;4358174;32;33692;-87
2022/07/06 03:45:55;;;;;;;4.53;2.70;;;;;;;18.72;72.74;99555.59;4351329;32;33798;-87
2022/07/06 03:48:25;;;;;;;3.92;2.83;;;;;;;18.78;72.21;99546.63;4357116;32;34414;-87
2022/07/06 03:50:56;;;;;;;4.15;2.67;;;;;;;18.71;72.82;99548.66;4354956;32;33978;-87
2022/07/06 03:53:26;;;;;;;6.00;3.15;;;;;;;18.83;71.71;99547.25;4347661;32;33645;-86
2022/07/06 03:58:41;;;;;;;5.03;3.20;;;;;;;18.74;71.94;99544.09;4353054;32;34171;-86
2022/07/06 04:01:11;;;;;;;5.45;3.40;;;;;;;18.69;72.80;99538.22;4348307;32;33079;-87
2022/07/06 04:03:40;;;;;;;4.95;2.72;;;;;;;18.53;72.93;99546.00;4351083;32;33674;-86
2022/07/06 04:06:11;;;;;;;5.30;2.97;;;;;;;18.65;72.77;99549.81;4348498;32;34066;-87
2022/07/06 04:08:40;;;;;;;6.10;3.45;;;;;;;18.94;72.02;99553.69;4346947;32;33827;-88
2022/07/06 04:11:09;;;;;;;3.65;2.83;;;;;;;19.51;69.18;99540.25;4354105;32;33620;-86
2022/07/06 04:13:38;;;;;;;6.47;3.10;;;;;;;19.37;69.80;99548.84;4348662;32;33958;-87
2022/07/06 04:16:08;;;;;;;5.10;3.28;;;;;;;19.66;68.55;99554.38;4346204;32;34021;-87
2022/07/06 04:18:37;;;;;;;5.55;3.30;;;;;;;19.52;69.31;99548.97;4348689;32;33777;-87
2022/07/06 04:21:07;;;;;;;4.28;2.70;;;;;;;19.25;69.95;99548.63;4349529;32;34122;-86
2022/07/06 04:23:38;;;;;;;3.87;2.35;;;;;;;19.52;68.91;99549.84;4358877;32;33400;-87
2022/07/06 04:26:07;;;;;;;4.28;2.75;;;;;;;19.62;69.09;99537.06;4350103;32;33488;-86
2022/07/06 04:28:54;;;;;;;4.18;2.72;;;;;;;19.48;69.53;99536.94;4349174;32;33710;-86
2022/07/06 04:31:26;;;;;;;4.22;2.53;;;;;;;19.79;67.72;99531.78;4348055;32;33288;-86
2022/07/06 04:33:55;;;;;;;4.55;3.25;;;;;;;19.51;69.29;99528.87;4354056;32;32969;-87
2022/07/06 04:36:25;;;;;;;4.93;2.37;;;;;;;19.64;68.49;99529.06;4351969;32;33618;-86
2022/07/06 04:38:56;;;;;;;6.00;2.90;;;;;;;19.68;68.82;99531.50;4356209;32;34432;-87
2022/07/06 04:41:25;;;;;;;5.60;2.95;;;;;;;20.06;66.85;99522.47;4352063;32;32901;-87
2022/07/06 04:43:54;;;;;;;6.97;2.95;;;;;;;20.03;67.16;99526.97;4351150;32;34611;-87
2022/07/06 04:46:22;;;;;;;8.52;2.80;;;;;;;20.09;67.00;99531.03;4349837;32;33891;-87
2022/07/06 04:48:52;;;;;;;4.15;2.37;;;;;;;20.50;64.99;99537.56;4350223;32;33536;-88
2022/07/06 04:51:23;;;;;;;4.95;2.62;;;;;;;20.49;64.91;99536.72;4360656;32;33705;-87
2022/07/06 04:53:52;;;;;;;5.72;3.30;;;;;;;20.92;63.41;99536.06;4354011;32;33795;-87
2022/07/06 04:56:23;;;;;;;4.85;2.70;;;;;;;21.39;62.13;99542.97;4353165;32;34806;-87
2022/07/06 04:58:52;;;;;;;4.72;2.92;;;;;;;21.69;60.50;99538.47;4351820;32;34232;-87
2022/07/06 05:01:21;;;;;;;4.40;2.20;;;;;;;22.68;57.21;99537.53;4352878;32;34166;-88
2022/07/06 05:03:50;;;;;;;3.60;2.20;;;;;;;23.13;55.99;99535.47;4359189;32;33726;-87
2022/07/06 05:06:20;;;;;;;4.72;2.90;;;;;;;23.47;54.53;99543.75;4353295;32;34704;-87
2022/07/06 05:08:49;;;;;;;4.45;2.62;;;;;;;23.13;55.24;99522.25;4352992;32;33732;-87
2022/07/06 05:11:18;;;;;;;8.23;2.58;;;;;;;23.21;55.37;99530.50;4352881;32;33667;-88
2022/07/06 05:13:49;;;;;;;3.40;2.28;;;;;;;22.92;55.43;99533.28;4356041;32;33904;-88
2022/07/06 05:16:18;;;;;;;3.62;2.15;;;;;;;22.71;56.51;99534.69;4354271;32;33714;-87
2022/07/06 05:18:47;;;;;;;3.53;2.47;;;;;;;22.43;57.49;99528.56;4355661;32;33901;-87
2022/07/06 05:21:16;;;;;;;3.70;2.30;;;;;;;22.32;57.66;99534.53;4354424;32;33192;-87
2022/07/06 05:23:45;;;;;;;4.65;2.87;;;;;;;22.09;58.45;99529.88;4350437;32;33810;-87
2022/07/06 05:26:14;;;;;;;7.40;2.35;;;;;;;22.09;58.62;99541.28;4344798;32;33972;-87
2022/07/06 05:28:43;;;;;;;3.85;2.47;;;;;;;21.98;58.91;99538.44;4351616;32;34072;-87
2022/07/06 05:31:14;;;;;;;6.47;2.78;;;;;;;22.01;58.84;99542.69;4358773;32;34227;-87
2022/07/06 05:33:43;;;;;;;4.82;2.85;;;;;;;21.76;59.83;99556.59;4351165;32;34643;-87
2022/07/06 05:36:13;;;;;;;6.03;2.78;;;;;;;21.57;60.48;99555.06;4353867;32;34884;-87
2022/07/06 05:38:42;;;;;;;4.07;2.30;;;;;;;21.89;59.83;99550.47;4349836;32;33369;-87
2022/07/06 05:41:11;;;;;;;4.95;2.55;;;;;;;21.89;59.43;99561.03;4354780;32;33250;-87
2022/07/06 05:43:40;;;;;;;10.85;2.95;;;;;;;21.81;59.73;99552.72;4355623;32;33373;-88
2022/07/06 05:46:09;;;;;;;4.53;2.28;;;;;;;21.79;60.20;99567.78;4342098;32;32741;-89
2022/07/06 05:51:26;;;;;;;4.47;2.50;;;;;;;21.40;61.08;99561.34;4349803;32;34270;-87
2022/07/06 05:53:55;;;;;;;7.37;2.83;;;;;;;21.50;60.83;99574.84;4352602;32;34608;-88
2022/07/06 05:56:24;;;;;;;4.12;2.28;;;;;;;21.52;60.18;99568.53;4354322;32;33965;-87
2022/07/06 05:58:53;;;;;;;5.15;2.92;;;;;;;21.29;61.19;99583.09;4344177;32;33921;-88
2022/07/06 06:01:22;;;;;;;5.87;2.53;;;;;;;21.31;61.54;99580.34;4354838;32;34077;-87
2022/07/06 06:03:53;;;;;;;5.28;3.17;;;;;;;21.50;60.86;99595.97;4353134;32;34580;-88
2022/07/06 06:06:23;;;;;;;4.28;2.50;;;;;;;21.61;60.75;99603.25;4345960;32;34632;-88
2022/07/06 06:08:52;;;;;;;4.57;2.67;;;;;;;21.06;62.39;99605.53;4352057;32;33563;-88
2022/07/06 06:11:21;;;;;;;4.78;2.60;;;;;;;21.13;62.10;99600.75;4360006;32;33177;-87
2022/07/06 06:13:50;;;;;;;4.62;2.80;;;;;;;20.98;62.50;99605.13;4353302;32;33854;-87
2022/07/06 06:16:19;;;;;;;4.05;2.50;;;;;;;21.00;63.08;99605.06;4352546;32;34794;-86
2022/07/06 06:18:48;;;;;;;6.53;2.97;;;;;;;21.31;62.37;99609.38;4353485;32;34772;-87
2022/07/06 06:21:18;;;;;;;6.20;3.17;;;;;;;21.39;62.17;99612.44;4354249;32;34074;-86
2022/07/06 06:23:47;;;;;;;5.18;3.08;;;;;;;21.39;63.15;99609.81;4355551;32;33082;-87
2022/07/06 06:26:17;;;;;;;5.10;3.37;;;;;;;21.67;61.97;99614.31;4350674;32;33977;-86
2022/07/06 06:28:46;;;;;;;5.20;2.97;;;;;;;21.62;62.19;99610.22;4351982;32;35400;-87
2022/07/06 06:31:15;;;;;;;5.53;3.28;;;;;;;21.91;60.78;99603.16;4352309;32;32923;-87
2022/07/06 06:33:44;;;;;;;5.30;2.85;;;;;;;21.63;61.09;99607.50;4334323;32;33776;-87
2022/07/06 06:36:12;;;;;;;6.70;3.37;;;;;;;21.61;62.37;99611.16;4356729;32;34716;-87
2022/07/06 06:38:43;;;;;;;8.73;3.55;;;;;;;22.06;60.12;99601.38;4351813;32;34371;-87
2022/07/06 06:41:12;;;;;;;4.82;2.92;;;;;;;21.93;61.21;99609.19;4353086;32;33398;-86
2022/07/06 06:43:41;;;;;;;5.10;2.78;;;;;;;21.99;60.73;99607.97;4353886;32;34130;-87
2022/07/06 06:46:12;;;;;;;4.75;3.15;;;;;;;21.95;61.53;99615.25;4354424;32;34783;-87
2022/07/06 06:48:41;;;;;;;4.93;2.47;;;;;;;22.05;59.84;99613.72;4357705;32;33995;-87
2022/07/06 06:51:10;;;;;;;6.82;3.42;;;;;;;21.91;60.72;99611.94;4359812;32;32715;-86
2022/07/06 06:53:39;;;;;;;9.23;3.20;;;;;;;21.85;60.49;99611.47;4350749;32;33352;-86
2022/07/06 06:56:09;;;;;;;5.47;2.90;;;;;;;21.94;60.13;99613.56;4348271;32;33996;-87
2022/07/06 06:58:38;;;;;;;4.12;2.60;;;;;;;21.97;60.62;99610.72;4351280;32;33227;-86
2022/07/06 07:01:27;;;;;;;4.47;2.40;;;;;;;22.05;59.96;99613.72;4350752;32;34337;-86
2022/07/06 07:03:57;;;;;;;4.93;2.45;;;;;;;22.42;59.15;99614.09;4362364;32;34195;-86
2022/07/06 07:06:25;;;;;;;5.15;3.03;;;;;;;22.81;58.53;99609.84;4351967;32;34375;-86
2022/07/06 07:08:55;;;;;;;4.28;2.53;;;;;;;22.91;57.68;99615.41;4354576;32;34228;-86
2022/07/06 07:11:25;;;;;;;4.05;2.42;;;;;;;23.08;56.80;99616.97;4355201;32;33342;-87
2022/07/06 07:13:54;;;;;;;4.85;3.05;;;;;;;23.00;55.57;99620.97;4353142;32;32305;-87
2022/07/06 07:16:24;;;;;;;3.22;1.90;;;;;;;22.93;56.74;99619.63;4352614;32;34061;-86
2022/07/06 07:18:53;;;;;;;4.53;2.22;;;;;;;23.20;55.87;99613.50;4350881;32;33541;-87
2022/07/06 07:21:24;;;;;;;3.75;1.90;;;;;;;23.20;55.26;99616.16;4348016;32;33133;-86
2022/07/06 07:23:53;;;;;;;4.37;2.35;;;;;;;23.26;55.60;99620.16;4353435;32;34019;-87
2022/07/06 07:26:22;;;;;;;3.87;2.20;;;;;;;23.42;54.57;99613.75;4350056;32;33713;-88
2022/07/06 07:28:52;;;;;;;4.40;2.50;;;;;;;23.43;53.70;99614.59;4360726;32;33620;-86
2022/07/06 07:31:21;;;;;;;5.25;2.53;;;;;;;23.69;54.02;99618.09;4353020;32;34285;-86
2022/07/06 07:33:50;;;;;;;2.97;1.75;;;;;;;23.85;54.11;99617.94;4355651;32;34487;-87
2022/07/06 07:36:26;;;;;;;5.53;1.92;;;;;;;24.17;52.06;99620.13;4344983;32;33687;-87
2022/07/06 07:38:55;;;;;;;2.92;2.00;;;;;;;24.30;52.45;99626.25;4348562;32;34514;-87
2022/07/06 07:41:24;;;;;;;3.70;1.95;;;;;;;24.22;51.81;99620.66;4357033;32;33046;-86
2022/07/06 07:43:54;;;;;;;5.12;2.33;;;;;;;24.44;51.21;99627.91;4350300;32;34622;-87
2022/07/06 07:46:23;;;;;;;3.53;2.25;;;;;;;24.42;52.48;99632.47;4351693;32;33885;-86
2022/07/06 07:48:51;;;;;;;4.50;2.22;;;;;;;24.31;52.57;99627.09;4351406;32;33854;-87
2022/07/06 07:51:21;;;;;;;4.25;2.22;;;;;;;24.48;52.52;99624.12;4348838;32;33390;-87
2022/07/06 07:53:49;;;;;;;2.58;1.55;;;;;;;24.57;51.76;99615.47;4357124;32;33674;-86
2022/07/06 07:56:18;;;;;;;2.85;1.65;;;;;;;24.52;52.12;99622.09;4348463;32;34072;-87
2022/07/06 07:58:48;;;;;;;4.20;2.22;;;;;;;24.80;51.44;99616.47;4351651;32;31946;-86
2022/07/06 08:01:19;;;;;;;4.78;1.95;;;;;;;24.88;50.79;99623.84;4351165;32;33555;-87
2022/07/06 08:03:48;;;;;;;2.78;1.80;;;;;;;25.09;50.39;99622.28;4355672;32;33345;-87
2022/07/06 08:06:17;;;;;;;3.05;1.80;;;;;;;25.27;49.26;99620.09;4357292;32;33950;-88
2022/07/06 08:08:46;;;;;;;7.10;2.78;;;;;;;25.22;48.87;99624.88;4356282;32;34230;-87
2022/07/06 08:11:15;;;;;;;3.65;2.05;;;;;;;25.09;49.72;99629.41;4355359;32;34118;-87
2022/07/06 08:13:47;;;;;;;3.87;1.70;;;;;;;25.44;49.19;99631.22;4354095;32;34523;-87
2022/07/06 08:16:16;;;;;;;1.90;1.30;;;;;;;25.41;46.67;99632.31;4351031;32;33932;-86
2022/07/06 08:18:46;;;;;;;2.65;1.60;;;;;;;25.71;46.42;99638.91;4354826;32;34608;-86
2022/07/06 08:21:15;;;;;;;3.55;2.15;;;;;;;25.49;46.30;99645.00;4361164;32;32898;-86
2022/07/06 08:23:54;;;;;;;3.22;1.62;;;;;;;25.85;45.99;99646.62;4353400;32;33281;-87
2022/07/06 08:26:23;;;;;;;4.18;2.05;;;;;;;25.60;46.42;99644.19;4352328;32;33578;-86
2022/07/06 08:28:51;;;;;;;3.25;1.77;;;;;;;25.91;46.35;99642.72;4355031;32;33810;-87
2022/07/06 08:31:20;;;;;;;3.58;1.98;;;;;;;25.79;46.32;99646.28;4350326;32;33311;-87
2022/07/06 08:34:10;;;;;;;3.95;2.00;;;;;;;25.74;47.65;99641.34;4353505;32;34285;-87
2022/07/06 08:36:40;;;;;;;4.03;2.10;;;;;;;25.85;46.95;99643.13;4359100;32;33377;-87
2022/07/06 08:39:09;;;;;;;3.10;1.83;;;;;;;25.62;47.80;99640.47;4353997;32;33534;-87
2022/07/06 08:41:39;;;;;;;3.75;1.98;;;;;;;25.83;46.96;99653.91;4349100;32;33411;-87
2022/07/06 08:44:09;;;;;;;3.62;2.17;;;;;;;25.48;47.85;99646.81;4351886;32;34350;-88
2022/07/06 08:46:39;;;;;;;4.05;2.17;;;;;;;25.59;48.63;99645.13;4345924;32;34397;-87
2022/07/06 08:49:09;;;;;;;4.00;2.10;;;;;;;25.83;47.44;99650.37;4353997;32;33792;-88
2022/07/06 08:51:41;;;;;;;3.87;2.05;;;;;;;25.46;48.35;99659.34;4350064;32;33207;-88
2022/07/06 08:54:12;;;;;;;3.40;2.20;;;;;;;25.24;48.58;99652.16;4348810;32;34302;-87
2022/07/06 08:56:40;;;;;;;;;;;;;;;25.47;48.93;99658.41;4349855;32;34739;-87
2022/07/06 08:59:16;;;;;;;6.12;2.90;;;;;;;25.86;46.42;99644.88;4348458;32;34208;-88
2022/07/06 09:01:45;;;;;;;2.75;1.83;;;;;;;25.73;46.81;99656.44;4349121;32;31709;-88
2022/07/06 09:04:20;;;;;;;4.95;3.37;;;;;;;25.69;45.89;99654.12;4354703;32;33910;-87
2022/07/06 09:06:50;;;;;;;3.78;2.12;;;;;;;25.72;46.17;99644.09;4346274;32;34221;-87
2022/07/06 09:09:22;;;;;;;4.45;2.37;;;;;;;25.80;46.58;99646.16;4349832;32;33330;-87
2022/07/06 09:11:51;;;;;;;3.75;2.22;;;;;;;25.86;46.52;99652.84;4349056;32;33422;-87
2022/07/06 09:14:20;;;;;;;3.67;1.95;;;;;;;26.30;45.57;99652.03;4351504;32;33866;-88
2022/07/06 09:16:53;;;;;;;3.22;2.00;;;;;;;26.07;44.76;99655.63;4355104;32;33093;-87
2022/07/06 09:19:22;;;;;;;2.83;1.73;;;;;;;26.08;44.85;99662.66;4351284;32;33941;-86
2022/07/06 09:21:53;;;;;;;4.60;2.15;;;;;;;26.12;45.95;99653.47;4351403;32;33871;-86
2022/07/06 09:24:22;;;;;;;3.08;1.70;;;;;;;26.30;44.33;99643.19;4346837;32;31872;-87
2022/07/06 09:26:51;;;;;;;2.78;1.35;;;;;;;26.88;42.88;99641.19;4352285;32;33309;-87
2022/07/06 09:29:27;;;;;;;2.83;1.45;;;;;;;26.79;40.61;99652.56;4354897;32;34324;-87
2022/07/06 09:31:58;;;;;;;3.12;1.80;;;;;;;26.61;40.64;99649.59;4355406;32;31711;-88
2022/07/06 09:34:41;;;;;;;3.47;1.65;;;;;;;26.57;41.30;99646.34;4348653;32;34598;-87
2022/07/06 09:37:12;;;;;;;6.35;2.00;;;;;;;26.84;39.98;99658.37;4350129;32;34092;-88
2022/07/06 09:39:41;;;;;;;2.92;1.52;;;;;;;26.87;39.64;99649.28;4349534;32;34003;-89
2022/07/06 09:42:10;;;;;;;1.95;1.37;;;;;;;26.80;39.35;99652.47;4350342;32;33166;-87
2022/07/06 09:44:40;;;;;;;2.33;1.30;;;;;;;26.96;38.92;99653.88;4355969;32;33666;-87
2022/07/06 09:47:11;;;;;;;5.93;1.48;;;;;;;27.14;39.53;99652.34;4338606;32;31957;-87
2022/07/06 09:49:40;;;;;;;3.17;1.50;;;;;;;27.41;37.66;99635.91;4348608;32;33551;-88
2022/07/06 09:52:11;;;;;;;2.97;1.45;;;;;;;27.14;36.85;99640.88;4350262;32;33172;-88
2022/07/06 09:54:41;;;;;;;2.58;1.30;;;;;;;27.61;36.62;99642.22;4350539;32;33780;-87
2022/07/06 09:57:10;;;;;;;3.60;1.95;;;;;;;27.67;38.46;99651.53;4352452;32;33976;-87
2022/07/06 09:59:41;;;;;;;2.58;1.42;;;;;;;27.70;39.16;99650.41;4360001;32;34539;-87
2022/07/06 10:02:10;;;;;;;4.05;1.77;;;;;;;27.88;39.45;99648.84;4351221;32;33427;-87
2022/07/06 10:04:39;;;;;;;3.00;1.48;;;;;;;27.72;38.58;99646.62;4352659;32;34549;-88
2022/07/06 10:07:09;;;;;;;4.03;1.70;;;;;;;27.50;38.71;99650.28;4348656;32;33571;-88
2022/07/06 10:09:40;;;;;;;3.47;1.50;;;;;;;27.72;36.29;99641.31;4348656;32;34192;-87
2022/07/06 10:12:10;;;;;;;;;;;;;;;27.75;36.38;99649.03;4354013;32;32944;-89
2022/07/06 10:14:39;;;;;;;2.33;1.35;;;;;;;27.51;36.33;99651.97;4350553;32;34113;-88
2022/07/06 10:17:08;;;;;;;3.30;1.40;;;;;;;27.37;36.71;99650.47;4352116;32;33118;-88
2022/07/06 10:19:37;;;;;;;4.07;1.42;;;;;;;27.78;35.03;99650.59;4350307;32;34025;-88
2022/07/06 10:22:07;;;;;;;1.42;1.10;;;;;;;27.76;33.80;99650.72;4350990;32;33187;-88
2022/07/06 10:24:43;;;;;;;2.87;1.40;;;;;;;27.74;32.38;99657.16;4358523;32;34230;-88
2022/07/06 10:27:13;;;;;;;3.78;2.40;;;;;;;27.71;33.02;99652.09;4358381;32;34642;-87
2022/07/06 10:29:42;;;;;;;2.22;0.93;;;;;;;27.79;32.99;99645.13;4353122;32;34454;-88
2022/07/06 10:32:11;;;;;;;2.05;1.23;;;;;;;27.85;33.60;99651.78;4351634;32;33332;-87
2022/07/06 10:34:40;;;;;;;1.90;1.30;;;;;;;28.05;33.52;99664.25;4356113;32;34597;-87
2022/07/06 10:37:23;;;;;;;3.00;1.52;;;;;;;27.97;32.99;99653.41;4348564;32;32382;-88
2022/07/06 10:42:49;;;;;;;2.80;1.42;;;;;;;28.36;31.98;99661.56;4353718;32;33515;-88
2022/07/06 10:45:23;;;;;;;2.40;1.40;;;;;;;28.44;31.47;99650.22;4350147;32;33872;-88
2022/07/06 10:48:20;;;;;;;2.08;1.23;;;;;;;28.64;30.96;99661.84;4346817;32;33692;-89
2022/07/06 10:50:52;;;;;;;2.25;1.35;;;;;;;28.24;30.82;99654.62;4346480;32;34741;-89
2022/07/06 10:53:25;;;;;;;1.75;1.00;;;;;;;28.60;30.68;99649.72;4348628;32;33138;-88
2022/07/06 10:55:55;;;;;;;2.75;1.27;;;;;;;29.02;29.00;99652.19;4346405;32;33601;-88
2022/07/06 10:58:50;;;;;;;2.23;1.20;;;;;;;28.92;29.57;99645.03;4352267;32;34431;-89
2022/07/06 11:01:21;;;;;;;2.00;1.20;;;;;;;29.11;28.83;99644.19;4348406;32;35401;-88
2022/07/06 11:03:51;;;;;;;3.17;1.25;;;;;;;29.24;30.02;99648.44;4343670;32;33423;-88
2022/07/06 11:06:21;;;;;;;2.37;1.33;;;;;;;29.15;28.85;99639.44;4347143;32;33466;-88
2022/07/06 11:08:54;;;;;;;2.22;0.80;;;;;;;28.72;30.04;99648.63;4350578;32;33487;-89
2022/07/06 11:11:25;;;;;;;2.92;1.37;;;;;;;28.75;30.06;99645.69;4353321;32;34532;-88
2022/07/06 11:13:59;;;;;;;2.30;1.20;;;;;;;28.66;30.19;99644.69;4354038;32;33297;-88
2022/07/06 11:16:30;;;;;;;2.03;1.10;;;;;;;28.69;28.68;99643.59;4347840;32;36432;-88
2022/07/06 11:19:10;;;;;;;3.50;1.27;;;;;;;28.64;28.25;99630.66;4345797;32;34380;-88
2022/07/06 11:21:46;;;;;;;3.53;1.00;;;;;;;28.60;28.20;99655.06;4345919;32;34442;-88
2022/07/06 11:24:16;;;;;;;4.45;1.55;;;;;;;28.64;28.87;99649.31;4332865;32;31553;-88
2022/07/06 11:26:47;;;;;;;1.92;1.17;;;;;;;29.14;28.63;99637.75;4345937;32;32989;-87
2022/07/06 11:29:21;;;;;;;;;;;;;;;29.55;28.02;99641.94;4351303;32;34712;-89
2022/07/06 11:31:52;;;;;;;2.37;1.20;;;;;;;29.49;27.35;99663.03;4346815;32;33548;-88
2022/07/06 11:34:25;;;;;;;2.60;1.30;;;;;;;29.12;27.74;99653.09;4345150;32;33043;-88
2022/07/06 11:36:56;;;;;;;2.05;1.20;;;;;;;29.14;27.98;99653.78;4348730;32;32315;-88
2022/07/06 11:39:27;;;;;;;2.15;1.05;;;;;;;29.01;28.76;99653.19;4344895;32;34619;-87
2022/07/06 11:41:56;;;;;;;2.25;1.20;;;;;;;29.38;26.59;99658.69;4332385;32;32704;-88
2022/07/06 11:44:27;;;;;;;2.45;1.08;;;;;;;29.63;25.53;99664.44;4352463;32;31650;-88
2022/07/06 11:46:59;;;;;;;1.92;0.93;;;;;;;29.34;25.60;99654.62;4346203;32;32636;-88
2022/07/06 11:49:28;;;;;;;2.80;1.30;;;;;;;29.51;26.43;99659.25;4344598;32;33944;-89
2022/07/06 11:51:57;;;;;;;1.85;0.85;;;;;;;29.68;25.60;99662.22;4344170;32;31868;-89
2022/07/06 11:54:26;;;;;;;2.20;0.90;;;;;;;29.77;23.07;99654.16;4346346;32;33585;-88
2022/07/06 11:56:58;;;;;;;1.33;0.93;;;;;;;29.89;23.66;99664.69;4337350;32;35462;-89